Ostend Airport 2019/02/18 05:50 EBOS 180550Z 17005KT CAVOK 02/M00 Q1017 NOSIG

Lille Airport 2019/02/18 06:00 LFQQ 180600Z AUTO 13004KT CAVOK 03/00 Q1018 NOSIG

Brussels Airport 2019/02/18 05:50 EBBR 180550Z 19007KT CAVOK 05/M00 Q1018 NOSIG